createdAt,value
2022-08-12T00:00:52.642Z,4.38
2022-08-12T00:03:38.230Z,5.97
2022-08-12T00:06:24.256Z,5.72
2022-08-12T00:09:10.166Z,4.95
2022-08-12T00:11:57.315Z,3.72
2022-08-12T00:14:42.524Z,4.00
2022-08-12T00:17:27.817Z,6.85
2022-08-12T00:20:13.292Z,5.50
2022-08-12T00:22:59.207Z,4.88
2022-08-12T00:26:21.695Z,5.18
2022-08-12T00:29:02.297Z,4.75
2022-08-12T00:31:48.142Z,4.20
2022-08-12T00:34:33.831Z,5.32
2022-08-12T00:37:19.305Z,3.80
2022-08-12T00:40:10.758Z,6.20
2022-08-12T00:42:40.880Z,6.10
2022-08-12T00:45:11.411Z,3.40
2022-08-12T00:47:39.963Z,3.90
2022-08-12T00:50:17.633Z,3.40
2022-08-12T00:52:46.310Z,4.35
2022-08-12T00:55:14.692Z,3.67
2022-08-12T00:57:48.553Z,3.25
2022-08-12T01:00:21.536Z,4.05
2022-08-12T01:02:52.595Z,3.08
2022-08-12T01:05:40.342Z,5.20
2022-08-12T01:08:26.109Z,5.43
2022-08-12T01:11:13.686Z,4.13
2022-08-12T01:13:43.017Z,4.93
2022-08-12T01:16:12.383Z,3.45
2022-08-12T01:18:41.643Z,4.78
2022-08-12T01:21:16.646Z,3.70
2022-08-12T01:23:58.207Z,3.70
2022-08-12T01:26:27.569Z,4.00
2022-08-12T01:28:58.894Z,3.80
2022-08-12T01:31:29.950Z,4.72
2022-08-12T01:34:06.488Z,4.72
2022-08-12T01:36:57.705Z,3.75
2022-08-12T01:39:30.664Z,3.45
2022-08-12T01:42:05.257Z,4.03
2022-08-12T01:44:35.173Z,6.18
2022-08-12T01:47:19.188Z,3.53
2022-08-12T01:50:05.452Z,5.60
2022-08-12T01:52:43.407Z,3.92
2022-08-12T01:55:12.412Z,3.75
2022-08-12T01:57:57.880Z,3.70
2022-08-12T02:00:43.385Z,4.43
2022-08-12T02:03:23.759Z,4.53
2022-08-12T02:06:18.035Z,3.88
2022-08-12T02:09:06.475Z,3.78
2022-08-12T02:11:36.802Z,5.57
2022-08-12T02:14:32.319Z,5.32
2022-08-12T02:17:10.534Z,5.28
2022-08-12T02:20:01.946Z,4.70
2022-08-12T02:22:32.095Z,4.72
2022-08-12T02:25:08.421Z,5.57
2022-08-12T02:27:40.688Z,5.68
2022-08-12T02:32:41.775Z,5.95
2022-08-12T02:35:14.893Z,8.75
2022-08-12T02:37:45.472Z,5.60
2022-08-12T02:40:15.047Z,3.90
2022-08-12T02:42:51.194Z,4.85
2022-08-12T02:45:28.344Z,4.70
2022-08-12T02:48:02.115Z,3.70
2022-08-12T02:50:34.968Z,4.35
2022-08-12T02:53:04.817Z,5.20
2022-08-12T02:55:36.550Z,4.22
2022-08-12T02:58:12.098Z,3.63
2022-08-12T03:00:44.515Z,4.63
2022-08-12T03:03:14.647Z,7.10
2022-08-12T03:05:49.710Z,3.42
2022-08-12T03:08:32.553Z,4.32
2022-08-12T03:11:11.996Z,6.05
2022-08-12T03:13:49.598Z,5.43
2022-08-12T03:16:19.478Z,4.75
2022-08-12T03:18:49.614Z,4.43
2022-08-12T03:22:03.807Z,4.82
2022-08-12T03:24:08.753Z,4.30
2022-08-12T03:26:37.782Z,3.95
2022-08-12T03:29:07.185Z,7.38
2022-08-12T03:31:36.385Z,4.88
2022-08-12T03:34:07.508Z,4.93
2022-08-12T03:36:39.082Z,6.13
2022-08-12T03:39:23.565Z,6.75
2022-08-12T03:42:14.347Z,18.48
2022-08-12T03:45:11.382Z,8.63
2022-08-12T03:48:05.580Z,4.95
2022-08-12T03:50:51.056Z,4.95
2022-08-12T03:53:45.483Z,5.03
2022-08-12T03:56:31.093Z,6.82
2022-08-12T03:59:17.630Z,6.55
2022-08-12T04:01:52.393Z,6.13
2022-08-12T04:04:23.537Z,4.07
2022-08-12T04:06:51.794Z,5.47
2022-08-12T04:09:21.557Z,5.10
2022-08-12T04:12:07.576Z,7.18
2022-08-12T04:14:35.999Z,6.22
2022-08-12T04:17:05.351Z,6.00
2022-08-12T04:19:34.554Z,6.90
2022-08-12T04:22:03.704Z,6.82
2022-08-12T04:24:34.973Z,7.07
2022-08-12T04:27:05.080Z,6.47
2022-08-12T04:30:29.581Z,6.25
2022-08-12T04:32:22.186Z,5.38
2022-08-12T04:34:51.892Z,8.43
2022-08-12T04:37:22.454Z,8.82
2022-08-12T04:39:50.913Z,6.95
2022-08-12T04:42:20.103Z,6.95
2022-08-12T04:44:48.412Z,7.07
2022-08-12T04:47:17.968Z,7.13
2022-08-12T04:49:48.120Z,7.05
2022-08-12T04:52:18.508Z,6.30
2022-08-12T04:54:47.511Z,7.53
2022-08-12T04:57:16.032Z,8.45
2022-08-12T04:59:47.850Z,7.30
2022-08-12T05:02:20.454Z,6.07
2022-08-12T05:04:50.729Z,11.88
2022-08-12T05:07:20.179Z,7.88
2022-08-12T05:09:59.469Z,7.43
2022-08-12T05:12:33.907Z,11.85
2022-08-12T05:15:01.707Z,11.30
2022-08-12T05:17:29.731Z,9.07
2022-08-12T05:19:58.158Z,9.63
2022-08-12T05:22:27.841Z,7.38
2022-08-12T05:24:55.939Z,5.85
2022-08-12T05:27:23.754Z,9.75
2022-08-12T05:30:06.758Z,9.23
2022-08-12T05:32:37.550Z,10.88
2022-08-12T05:35:08.096Z,10.15
2022-08-12T05:37:37.291Z,11.43
2022-08-12T05:40:10.849Z,10.75
2022-08-12T05:42:39.273Z,9.68
2022-08-12T05:45:08.575Z,8.85
2022-08-12T05:47:42.541Z,7.78
2022-08-12T05:50:22.171Z,9.73
2022-08-12T05:52:53.031Z,9.90
2022-08-12T05:55:24.161Z,13.80
2022-08-12T05:57:55.319Z,14.63
2022-08-12T06:00:25.481Z,11.27
2022-08-12T06:03:01.364Z,12.38
2022-08-12T06:05:29.529Z,10.68
2022-08-12T06:08:02.512Z,11.82
2022-08-12T06:10:32.933Z,15.38
2022-08-12T06:13:02.548Z,13.13
2022-08-12T06:15:32.179Z,15.90
2022-08-12T06:18:13.152Z,12.27
2022-08-12T06:20:43.842Z,14.02
2022-08-12T06:23:16.587Z,15.25
2022-08-12T06:25:46.511Z,11.95
2022-08-12T06:28:17.598Z,13.30
2022-08-12T06:30:57.296Z,9.52
2022-08-12T06:33:56.029Z,12.70
2022-08-12T06:36:24.998Z,13.75
2022-08-12T06:38:59.473Z,10.77
2022-08-12T06:42:30.637Z,12.20
2022-08-12T06:44:41.034Z,8.40
2022-08-12T06:47:08.796Z,8.82
2022-08-12T06:49:36.907Z,12.60
2022-08-12T06:52:07.378Z,10.57
2022-08-12T06:54:36.592Z,11.15
2022-08-12T06:58:05.419Z,7.55
2022-08-12T06:59:52.519Z,9.60
2022-08-12T07:02:22.780Z,10.05
2022-08-12T07:04:52.584Z,14.18
2022-08-12T07:07:20.466Z,11.43
2022-08-12T07:10:03.964Z,12.25
2022-08-12T07:12:36.828Z,13.40
2022-08-12T07:15:05.346Z,10.25
2022-08-12T07:17:37.806Z,9.02
2022-08-12T07:20:10.033Z,8.63
2022-08-12T07:25:26.812Z,11.18
2022-08-12T07:27:55.164Z,9.15
2022-08-12T07:30:24.016Z,7.60
2022-08-12T07:32:52.259Z,11.43
2022-08-12T07:35:20.511Z,8.75
2022-08-12T07:37:50.454Z,9.70
2022-08-12T07:40:21.084Z,8.77
2022-08-12T07:42:49.607Z,8.55
2022-08-12T07:45:18.097Z,8.90
2022-08-12T07:47:45.902Z,6.72
2022-08-12T07:50:18.880Z,11.77
2022-08-12T07:52:49.502Z,10.57
2022-08-12T07:55:19.579Z,10.05
2022-08-12T07:57:53.316Z,13.05
2022-08-12T08:00:21.291Z,8.82
2022-08-12T08:02:54.207Z,6.47
2022-08-12T08:05:23.787Z,7.20
2022-08-12T08:07:53.274Z,9.43
2022-08-12T08:10:22.564Z,9.77
2022-08-12T08:12:56.034Z,6.10
2022-08-12T08:15:44.648Z,6.22
2022-08-12T08:18:26.620Z,6.93
2022-08-12T08:20:57.282Z,9.07
2022-08-12T08:23:55.791Z,8.02
2022-08-12T08:26:27.131Z,8.43
2022-08-12T08:28:55.050Z,6.22
2022-08-12T08:31:22.805Z,7.90
2022-08-12T08:34:09.117Z,5.20
2022-08-12T08:36:40.363Z,4.22
2022-08-12T08:39:11.604Z,5.85
2022-08-12T08:42:17.444Z,6.00
2022-08-12T08:44:46.785Z,8.05
2022-08-12T08:47:17.542Z,7.47
2022-08-12T08:49:45.626Z,6.78
2022-08-12T08:52:13.391Z,7.43
2022-08-12T08:55:01.164Z,5.38
2022-08-12T08:57:43.600Z,6.32
2022-08-12T09:00:19.689Z,8.15
2022-08-12T09:02:58.778Z,5.47
2022-08-12T09:05:27.944Z,3.83
2022-08-12T09:08:12.184Z,4.43
2022-08-12T09:10:55.229Z,5.25
2022-08-12T09:14:11.167Z,3.90
2022-08-12T09:16:23.156Z,5.90
2022-08-12T09:18:52.493Z,6.03
2022-08-12T09:21:20.665Z,6.97
2022-08-12T09:23:59.414Z,5.30
2022-08-12T09:26:45.803Z,4.43
2022-08-12T09:29:15.939Z,5.55
2022-08-12T09:32:04.137Z,4.97
2022-08-12T09:34:34.082Z,3.55
2022-08-12T09:37:19.353Z,7.20
2022-08-12T09:40:04.553Z,5.25
2022-08-12T09:43:16.153Z,4.15
2022-08-12T09:46:06.718Z,5.55
2022-08-12T09:48:35.119Z,5.78
2022-08-12T09:51:04.892Z,8.10
2022-08-12T09:53:45.795Z,4.10
2022-08-12T09:56:58.682Z,4.60
2022-08-12T10:00:17.092Z,4.07
2022-08-12T10:02:45.637Z,3.40
2022-08-12T10:05:00.471Z,5.53
2022-08-12T10:07:37.652Z,4.50
2022-08-12T10:10:22.969Z,3.70
2022-08-12T10:13:12.884Z,6.20
2022-08-12T10:16:01.512Z,3.95
2022-08-12T10:18:35.831Z,4.65
2022-08-12T10:21:07.474Z,4.90
2022-08-12T10:23:39.772Z,5.45
2022-08-12T10:26:37.054Z,3.45
2022-08-12T10:30:11.878Z,5.30
2022-08-12T10:32:22.108Z,5.22
2022-08-12T10:34:53.366Z,3.33
2022-08-12T10:37:23.681Z,5.95
2022-08-12T10:40:20.531Z,4.68
2022-08-12T10:43:03.638Z,5.00
2022-08-12T10:45:31.896Z,7.57
2022-08-12T10:48:19.150Z,4.03
2022-08-12T10:51:00.458Z,3.92
2022-08-12T10:53:45.195Z,4.07
2022-08-12T10:56:15.335Z,3.28
2022-08-12T10:58:46.028Z,4.32
2022-08-12T11:04:22.741Z,4.10
2022-08-12T11:07:07.998Z,4.95
2022-08-12T11:10:00.752Z,6.90
2022-08-12T11:12:56.633Z,6.10
2022-08-12T11:15:24.414Z,4.70
2022-08-12T11:20:48.043Z,3.88
2022-08-12T11:23:24.981Z,4.50
2022-08-12T11:26:06.824Z,6.13
2022-08-12T11:28:36.978Z,3.55
2022-08-12T11:31:14.118Z,3.28
2022-08-12T11:34:05.749Z,3.90
2022-08-12T11:36:30.943Z,5.30
2022-08-12T11:39:04.502Z,4.90
2022-08-12T11:41:33.555Z,3.70
2022-08-12T11:44:36.170Z,5.82
2022-08-12T11:46:55.146Z,4.25
2022-08-12T11:49:31.115Z,5.53
2022-08-12T11:51:59.893Z,7.85
2022-08-12T11:54:29.442Z,3.58
2022-08-12T11:56:59.874Z,3.30
2022-08-12T12:02:20.152Z,3.38
2022-08-12T12:04:52.921Z,4.60
2022-08-12T12:08:38.949Z,4.20
2022-08-12T12:10:13.955Z,4.32
2022-08-12T12:12:49.567Z,6.70
2022-08-12T12:15:25.227Z,4.95
2022-08-12T12:18:05.112Z,3.25
2022-08-12T12:20:32.922Z,4.82
2022-08-12T12:23:01.804Z,4.13
2022-08-12T12:26:06.482Z,6.43
2022-08-12T12:28:36.838Z,4.53
2022-08-12T12:31:15.162Z,3.50
2022-08-12T12:33:58.020Z,4.90
2022-08-12T12:36:29.908Z,5.72
2022-08-12T12:39:00.222Z,4.40
2022-08-12T12:42:42.141Z,4.95
2022-08-12T12:44:30.247Z,5.97
2022-08-12T12:47:28.804Z,4.22
2022-08-12T12:49:53.932Z,7.70
2022-08-12T12:52:27.014Z,5.20
2022-08-12T12:54:55.467Z,4.70
2022-08-12T12:57:36.075Z,3.35
2022-08-12T13:00:18.022Z,4.95
2022-08-12T13:02:54.309Z,5.07
2022-08-12T13:05:28.273Z,6.35
2022-08-12T13:08:00.757Z,4.95
2022-08-12T13:10:36.966Z,4.75
2022-08-12T13:14:07.706Z,4.63
2022-08-12T13:15:59.038Z,3.75
2022-08-12T13:20:59.692Z,5.13
2022-08-12T13:23:35.965Z,3.50
2022-08-12T13:26:07.694Z,4.35
2022-08-12T13:28:45.628Z,7.00
2022-08-12T13:31:22.331Z,3.20
2022-08-12T13:36:40.989Z,4.80
2022-08-12T13:39:09.312Z,5.22
2022-08-12T13:41:37.696Z,3.65
2022-08-12T13:44:10.735Z,6.40
2022-08-12T13:46:40.860Z,11.98
2022-08-12T13:49:11.485Z,14.77
2022-08-12T13:51:54.224Z,5.40
2022-08-12T13:54:22.070Z,4.95
2022-08-12T13:56:51.503Z,4.60
2022-08-12T13:59:24.633Z,11.15
2022-08-12T14:01:56.859Z,35.35
2022-08-12T14:04:24.819Z,11.15
2022-08-12T14:06:53.995Z,6.10
2022-08-12T14:09:22.113Z,6.40
2022-08-12T14:11:59.343Z,4.47
2022-08-12T14:14:31.284Z,4.35
2022-08-12T14:17:05.712Z,5.25
2022-08-12T14:19:48.753Z,5.22
2022-08-12T14:22:21.488Z,5.57
2022-08-12T14:24:54.266Z,5.95
2022-08-12T14:28:03.301Z,5.03
2022-08-12T14:30:28.797Z,4.10
2022-08-12T14:32:57.631Z,4.05
2022-08-12T14:35:25.371Z,3.90
2022-08-12T14:37:56.169Z,6.38
2022-08-12T14:40:28.185Z,2.80
2022-08-12T14:42:57.009Z,3.53
2022-08-12T14:45:44.584Z,2.78
2022-08-12T14:48:16.552Z,2.78
2022-08-12T14:51:03.307Z,3.30
2022-08-12T14:59:57.068Z,4.35
2022-08-12T15:02:20.858Z,4.70
2022-08-12T15:04:56.054Z,3.05
2022-08-12T15:07:33.319Z,3.95
2022-08-12T15:10:13.433Z,2.08
2022-08-12T15:12:41.656Z,2.35
2022-08-12T15:15:10.466Z,2.38
2022-08-12T15:17:40.502Z,3.03
2022-08-12T15:20:32.402Z,3.55
2022-08-12T15:22:58.101Z,3.35
2022-08-12T15:25:26.034Z,3.15
2022-08-12T15:28:03.972Z,3.30
2022-08-12T15:30:33.861Z,6.68
2022-08-12T15:33:12.577Z,3.60
2022-08-12T15:35:52.275Z,3.03
2022-08-12T15:38:25.304Z,2.38
2022-08-12T15:40:55.241Z,3.85
2022-08-12T15:44:15.670Z,4.38
2022-08-12T15:46:15.146Z,3.67
2022-08-12T15:48:47.461Z,4.75
2022-08-12T15:51:58.855Z,5.05
2022-08-12T15:54:33.104Z,3.75
2022-08-12T15:57:05.828Z,3.08
2022-08-12T16:00:04.536Z,4.35
2022-08-12T16:02:27.132Z,4.43
2022-08-12T16:04:58.649Z,4.97
2022-08-12T16:07:32.542Z,3.63
2022-08-12T16:10:08.304Z,2.67
2022-08-12T16:12:43.405Z,3.15
2022-08-12T16:15:24.995Z,3.90
2022-08-12T16:18:19.521Z,4.53
2022-08-12T16:20:46.517Z,3.22
2022-08-12T16:23:36.319Z,2.35
2022-08-12T16:26:14.183Z,3.67
2022-08-12T16:28:43.169Z,4.90
2022-08-12T16:31:18.618Z,4.93
2022-08-12T16:33:59.108Z,4.35
2022-08-12T16:36:30.525Z,3.20
2022-08-12T16:39:01.759Z,5.47
2022-08-12T16:41:33.521Z,2.58
2022-08-12T16:44:08.524Z,5.80
2022-08-12T16:46:37.674Z,4.47
2022-08-12T16:49:13.146Z,3.90
2022-08-12T16:51:46.673Z,3.50
2022-08-12T16:54:16.557Z,4.85
2022-08-12T16:56:54.513Z,4.68
2022-08-12T16:59:26.279Z,4.57
2022-08-12T17:01:59.078Z,4.57
2022-08-12T17:04:29.114Z,3.90
2022-08-12T17:06:58.562Z,5.03
2022-08-12T17:09:27.071Z,3.63
2022-08-12T17:12:08.900Z,4.50
2022-08-12T17:14:38.074Z,3.50
2022-08-12T17:17:18.578Z,4.38
2022-08-12T17:20:28.643Z,4.57
2022-08-12T17:22:56.011Z,3.13
2022-08-12T17:25:25.533Z,4.15
2022-08-12T17:27:58.977Z,5.28
2022-08-12T17:30:29.638Z,2.65
2022-08-12T17:33:02.678Z,3.33
2022-08-12T17:35:37.269Z,4.22
2022-08-12T17:38:13.623Z,3.53
2022-08-12T17:40:43.680Z,3.00
2022-08-12T17:43:56.784Z,4.53
2022-08-12T17:46:13.139Z,2.95
2022-08-12T17:48:54.926Z,6.65
2022-08-12T17:51:26.429Z,2.38
2022-08-12T17:54:10.790Z,2.95
2022-08-12T17:56:43.302Z,5.75
2022-08-12T17:59:12.331Z,2.97
2022-08-12T18:01:45.327Z,4.43
2022-08-12T18:04:22.413Z,3.10
2022-08-12T18:06:52.016Z,2.92
2022-08-12T18:09:24.371Z,4.15
2022-08-12T18:12:11.885Z,4.00
2022-08-12T18:14:41.487Z,4.50
2022-08-12T18:17:11.958Z,3.67
2022-08-12T18:20:05.625Z,2.42
2022-08-12T18:22:40.905Z,5.68
2022-08-12T18:26:11.418Z,3.88
2022-08-12T18:28:11.644Z,2.75
2022-08-12T18:30:53.014Z,5.45
2022-08-12T18:33:24.859Z,5.45
2022-08-12T18:35:55.498Z,3.35
2022-08-12T18:38:25.756Z,4.50
2022-08-12T18:41:21.723Z,4.47
2022-08-12T18:43:59.452Z,3.85
2022-08-12T18:46:33.223Z,3.22
2022-08-12T18:49:18.269Z,3.50
2022-08-12T18:51:55.535Z,4.10
2022-08-12T18:54:35.672Z,6.13
2022-08-12T18:57:16.654Z,4.30
2022-08-12T19:00:06.981Z,5.90
2022-08-12T19:02:40.654Z,4.82
2022-08-12T19:05:10.623Z,5.90
2022-08-12T19:08:00.147Z,5.40
2022-08-12T19:10:30.444Z,3.65
2022-08-12T19:13:23.143Z,5.55
2022-08-12T19:15:53.450Z,3.85
2022-08-12T19:18:22.120Z,6.00
2022-08-12T19:20:50.746Z,4.40
2022-08-12T19:23:21.287Z,3.28
2022-08-12T19:25:59.582Z,6.82
2022-08-12T19:28:35.461Z,3.30
2022-08-12T19:31:55.821Z,3.58
2022-08-12T19:34:56.480Z,5.63
2022-08-12T19:37:20.032Z,6.72
2022-08-12T19:40:09.950Z,4.78
2022-08-12T19:42:42.662Z,6.57
2022-08-12T19:45:15.666Z,4.72
2022-08-12T19:47:44.698Z,7.07
2022-08-12T19:50:19.661Z,6.63
2022-08-12T19:52:53.077Z,9.65
2022-08-12T19:55:23.323Z,8.07
2022-08-12T19:58:03.101Z,8.40
2022-08-12T20:00:34.429Z,9.00
2022-08-12T20:03:04.835Z,8.75
2022-08-12T20:06:05.216Z,10.73
2022-08-12T20:08:34.764Z,6.68
2022-08-12T20:14:00.702Z,6.47
2022-08-12T20:16:52.580Z,5.60
2022-08-12T20:19:52.928Z,5.47
2022-08-12T20:22:20.345Z,6.53
2022-08-12T20:24:55.127Z,5.20
2022-08-12T20:27:53.668Z,7.93
2022-08-12T20:30:14.222Z,4.25
2022-08-12T20:32:53.918Z,4.78
2022-08-12T20:35:24.329Z,5.15
2022-08-12T20:38:06.659Z,4.35
2022-08-12T20:40:38.382Z,4.10
2022-08-12T20:43:08.561Z,4.65
2022-08-12T20:45:44.665Z,3.30
2022-08-12T20:48:21.633Z,4.90
2022-08-12T20:50:53.791Z,4.50
2022-08-12T20:53:33.083Z,3.42
2022-08-12T20:56:54.334Z,5.28
2022-08-12T20:59:47.873Z,7.40
2022-08-12T21:02:24.145Z,5.20
2022-08-12T21:05:20.054Z,5.13
2022-08-12T21:07:51.526Z,4.50
2022-08-12T21:10:20.744Z,5.10
2022-08-12T21:12:50.758Z,5.10
2022-08-12T21:15:30.223Z,6.22
2022-08-12T21:18:11.593Z,4.15
2022-08-12T21:20:54.237Z,5.05
2022-08-12T21:23:23.635Z,6.22
2022-08-12T21:25:56.102Z,6.30
2022-08-12T21:28:30.885Z,5.20
2022-08-12T21:32:37.616Z,4.68
2022-08-12T21:34:08.145Z,4.95
2022-08-12T21:36:48.151Z,5.13
2022-08-12T21:39:20.736Z,4.85
2022-08-12T21:41:51.924Z,6.40
2022-08-12T21:44:24.630Z,6.88
2022-08-12T21:47:20.404Z,5.70
2022-08-12T21:50:04.086Z,3.35
2022-08-12T21:52:41.880Z,4.72
2022-08-12T21:55:17.830Z,6.40
2022-08-12T21:57:53.241Z,6.28
2022-08-12T22:00:31.798Z,5.88
2022-08-12T22:04:01.365Z,4.10
2022-08-12T22:06:20.342Z,4.57
2022-08-12T22:09:02.221Z,4.20
2022-08-12T22:11:42.379Z,6.82
2022-08-12T22:14:21.282Z,6.13
2022-08-12T22:16:50.729Z,4.15
2022-08-12T22:19:19.751Z,6.03
2022-08-12T22:21:53.354Z,5.18
2022-08-12T22:24:26.665Z,7.47
2022-08-12T22:26:56.485Z,4.75
2022-08-12T22:29:42.383Z,6.05
2022-08-12T22:32:11.366Z,3.92
2022-08-12T22:34:40.208Z,4.57
2022-08-12T22:37:19.831Z,4.03
2022-08-12T22:39:49.638Z,5.22
2022-08-12T22:42:37.271Z,4.88
2022-08-12T22:45:24.842Z,4.82
2022-08-12T22:47:56.429Z,5.07
2022-08-12T22:50:28.508Z,4.20
2022-08-12T22:53:15.165Z,4.38
2022-08-12T22:55:59.699Z,4.68
2022-08-12T22:58:35.230Z,5.25
2022-08-12T23:01:03.649Z,4.40
2022-08-12T23:03:49.409Z,5.78
2022-08-12T23:06:19.720Z,4.18
2022-08-12T23:08:48.551Z,4.03
2022-08-12T23:11:23.986Z,6.20
2022-08-12T23:13:56.365Z,6.68
2022-08-12T23:16:31.134Z,5.57
2022-08-12T23:19:09.939Z,4.75
2022-08-12T23:22:05.499Z,7.30
2022-08-12T23:24:41.059Z,7.75
2022-08-12T23:27:50.428Z,3.97
2022-08-12T23:30:24.603Z,7.90
2022-08-12T23:32:54.753Z,4.78
2022-08-12T23:35:45.297Z,5.05
2022-08-12T23:38:24.639Z,4.28
2022-08-12T23:41:00.827Z,4.40
2022-08-12T23:43:40.071Z,3.92
2022-08-12T23:46:09.875Z,5.55
2022-08-12T23:48:38.430Z,5.30
2022-08-12T23:51:22.027Z,4.07
2022-08-12T23:53:53.545Z,8.27
2022-08-12T23:56:24.107Z,4.78
2022-08-12T23:58:55.177Z,4.40
